Time;durP1;ratioP1;P1;durP2;ratioP2;P2;SDS_P1;SDS_P2;PMS_P1;PMS_P2;Temp;Humidity;BMP_temperature;BMP_pressure;BME280_temperature;BME280_humidity;BME280_pressure;Samples;Min_cycle;Max_cycle;Signal;HPM_P1;HPM_P2
2021/10/09 00:00:06;;;;;;;22.30;15.40;;;10.40;94.80;;;;;;5030774;28;20057;-58
2021/10/09 00:02:31;;;;;;;22.67;15.27;;;10.40;94.80;;;;;;5031827;28;20448;-64
2021/10/09 00:04:57;;;;;;;26.85;15.23;;;10.40;94.80;;;;;;5049247;28;20033;-61
2021/10/09 00:07:22;;;;;;;21.88;14.55;;;10.40;94.80;;;;;;5052213;28;20437;-56
2021/10/09 00:09:52;;;;;;;24.83;15.25;;;10.50;94.80;;;;;;5051830;28;20040;-56
2021/10/09 00:12:18;;;;;;;24.45;15.73;;;10.40;94.70;;;;;;5053863;28;20021;-55
2021/10/09 00:14:43;;;;;;;22.48;14.60;;;10.40;94.80;;;;;;5055626;28;20078;-57
2021/10/09 00:17:13;;;;;;;27.90;15.80;;;10.40;94.90;;;;;;5054611;28;20037;-57
2021/10/09 00:19:38;;;;;;;24.52;15.75;;;10.20;94.90;;;;;;5054993;28;20025;-54
2021/10/09 00:22:04;;;;;;;23.55;15.07;;;10.20;95.20;;;;;;5055923;28;20606;-57
2021/10/09 00:24:29;;;;;;;29.58;15.90;;;10.20;95.10;;;;;;5055734;28;20036;-58
2021/10/09 00:26:55;;;;;;;25.98;15.27;;;10.00;95.30;;;;;;5055724;28;20029;-53
2021/10/09 00:29:20;;;;;;;24.83;15.20;;;10.00;95.40;;;;;;5054785;28;20549;-52
2021/10/09 00:31:46;;;;;;;24.15;15.85;;;9.90;95.50;;;;;;5055046;28;20067;-54
2021/10/09 00:34:12;;;;;;;23.85;15.73;;;9.80;95.50;;;;;;5053980;28;20396;-55
2021/10/09 00:36:37;;;;;;;22.95;14.75;;;9.80;95.60;;;;;;5055762;28;20508;-53
2021/10/09 00:39:03;;;;;;;26.88;16.45;;;9.70;95.90;;;;;;5055234;28;20040;-55
2021/10/09 00:41:29;;;;;;;25.27;15.30;;;9.70;95.70;;;;;;5054897;28;20082;-54
2021/10/09 00:43:54;;;;;;;26.75;16.42;;;9.60;95.90;;;;;;5053447;28;20041;-57
2021/10/09 00:46:20;;;;;;;25.00;15.25;;;9.50;96.20;;;;;;5054784;28;20029;-55
2021/10/09 00:48:46;;;;;;;24.00;15.13;;;9.50;96.20;;;;;;5054931;28;20029;-56
2021/10/09 00:51:12;;;;;;;22.55;15.70;;;9.40;96.30;;;;;;5055101;28;20021;-55
2021/10/09 00:53:42;;;;;;;18.98;14.70;;;9.30;96.30;;;;;;5055229;28;20025;-57
2021/10/09 00:56:09;;;;;;;24.05;15.30;;;9.30;96.50;;;;;;5055140;28;20378;-56
2021/10/09 00:58:38;;;;;;;26.55;15.18;;;9.40;96.60;;;;;;5054954;28;20033;-58
2021/10/09 01:01:03;;;;;;;23.85;16.05;;;9.50;96.40;;;;;;5054844;28;20037;-56
2021/10/09 01:03:30;;;;;;;19.67;14.82;;;9.50;96.40;;;;;;5049874;28;20396;-58
2021/10/09 01:05:55;;;;;;;22.02;15.43;;;9.50;96.30;;;;;;5034726;28;20025;-57
2021/10/09 01:08:21;;;;;;;23.48;14.65;;;9.50;96.40;;;;;;5033270;28;20523;-57
2021/10/09 01:10:46;;;;;;;22.67;15.07;;;9.50;96.30;;;;;;5034435;28;20033;-56
2021/10/09 01:13:12;;;;;;;24.23;14.02;;;9.60;96.30;;;;;;5032943;28;20072;-57
2021/10/09 01:15:38;;;;;;;23.88;14.82;;;9.60;96.20;;;;;;5034933;28;20033;-55
2021/10/09 01:18:07;;;;;;;20.13;15.30;;;9.60;96.20;;;;;;5035360;28;20110;-57
2021/10/09 01:20:49;;;;;;;28.77;15.95;;;9.60;96.30;;;;;;5039348;28;20037;-56
2021/10/09 01:23:15;;;;;;;21.05;14.82;;;9.60;96.30;;;;;;5053064;28;20060;-58
2021/10/09 01:25:41;;;;;;;27.38;16.10;;;9.50;96.40;;;;;;5053236;28;20067;-58
2021/10/09 01:28:08;;;;;;;26.33;15.48;;;9.40;96.40;;;;;;5053539;28;20081;-56
2021/10/09 01:30:34;;;;;;;23.65;15.15;;;9.40;96.50;;;;;;5054551;28;20495;-54
2021/10/09 01:33:00;;;;;;;19.85;14.68;;;9.30;96.60;;;;;;5054621;28;20041;-56
2021/10/09 01:35:26;;;;;;;23.42;15.27;;;9.30;96.50;;;;;;5054681;28;20040;-56
2021/10/09 01:37:51;;;;;;;22.95;15.10;;;9.30;96.50;;;;;;5054400;28;20040;-59
2021/10/09 01:40:17;;;;;;;24.45;15.30;;;9.30;96.60;;;;;;5054152;28;20037;-53
2021/10/09 01:42:43;;;;;;;19.38;15.18;;;9.20;96.70;;;;;;5053987;28;20403;-51
2021/10/09 01:45:10;;;;;;;26.20;15.38;;;9.20;96.60;;;;;;5053764;28;20036;-56
2021/10/09 01:47:40;;;;;;;20.58;15.32;;;9.20;96.60;;;;;;5052960;28;20025;-51
2021/10/09 01:50:06;;;;;;;26.88;15.52;;;9.20;96.60;;;;;;5054344;28;20075;-51
2021/10/09 01:52:31;;;;;;;20.75;15.02;;;9.20;96.80;;;;;;5053469;28;20033;-54
2021/10/09 01:54:57;;;;;;;23.52;15.00;;;9.20;96.80;;;;;;5054331;28;20602;-54
2021/10/09 01:57:22;;;;;;;22.88;15.50;;;9.20;96.80;;;;;;5036572;28;20048;-53
2021/10/09 01:59:48;;;;;;;23.63;15.57;;;9.20;96.80;;;;;;5053788;28;20489;-58
2021/10/09 02:02:13;;;;;;;23.25;15.30;;;9.20;96.80;;;;;;5053642;28;20373;-56
2021/10/09 02:04:39;;;;;;;27.35;16.02;;;9.20;96.90;;;;;;5039041;28;20435;-53
2021/10/09 02:07:07;;;;;;;21.17;15.60;;;9.20;96.80;;;;;;5033633;28;20113;-53
2021/10/09 02:09:32;;;;;;;38.85;24.30;;;9.20;96.90;;;;;;5033564;28;20032;-58
2021/10/09 02:11:59;;;;;;;27.25;18.85;;;9.20;97.10;;;;;;5032387;28;20116;-52
2021/10/09 02:14:42;;;;;;;21.17;14.55;;;9.20;97.10;;;;;;5034083;28;20148;-53
2021/10/09 02:27:59;;;;;;;19.30;14.98;;;9.20;96.80;;;;;;5052576;28;20033;-55
2021/10/09 02:30:25;;;;;;;25.08;15.30;;;9.10;96.90;;;;;;5053596;28;20389;-58
2021/10/09 02:32:51;;;;;;;25.00;15.90;;;9.10;96.70;;;;;;5052918;28;20049;-58
2021/10/09 02:35:17;;;;;;;23.98;15.25;;;9.10;96.90;;;;;;5052957;28;20041;-56
2021/10/09 02:37:42;;;;;;;23.10;15.57;;;9.10;96.90;;;;;;5053472;28;20028;-54
2021/10/09 02:40:09;;;;;;;22.17;16.45;;;9.00;96.90;;;;;;5053189;28;20044;-51
2021/10/09 02:42:35;;;;;;;23.98;15.57;;;8.90;97.10;;;;;;5052623;28;20060;-59
2021/10/09 02:45:01;;;;;;;26.52;15.20;;;8.90;97.10;;;;;;5052840;28;20021;-55
2021/10/09 02:47:26;;;;;;;23.45;14.75;;;8.80;97.00;;;;;;5053127;28;20496;-53
2021/10/09 02:49:52;;;;;;;23.40;15.70;;;8.80;97.30;;;;;;5053218;28;20388;-56
2021/10/09 02:52:17;;;;;;;24.92;15.63;;;8.80;97.30;;;;;;5052461;28;20032;-59
2021/10/09 02:54:43;;;;;;;21.65;15.43;;;8.80;97.20;;;;;;5033971;28;20033;-56
2021/10/09 02:57:08;;;;;;;23.90;15.57;;;8.80;97.30;;;;;;5052942;28;20045;-53
2021/10/09 02:59:34;;;;;;;24.88;16.52;;;8.80;97.20;;;;;;5052714;28;20044;-58
2021/10/09 03:01:59;;;;;;;25.63;15.82;;;8.80;97.20;;;;;;5051429;28;20123;-59
2021/10/09 03:04:25;;;;;;;25.58;16.33;;;8.70;97.40;;;;;;5040031;28;20042;-67
2021/10/09 03:06:51;;;;;;;23.67;15.23;;;8.70;97.30;;;;;;5033091;28;20400;-51
2021/10/09 03:09:16;;;;;;;25.92;15.45;;;8.70;97.30;;;;;;5034645;28;20099;-53
2021/10/09 03:11:42;;;;;;;27.50;16.20;;;8.80;97.20;;;;;;5037236;28;20033;-61
2021/10/09 03:14:07;;;;;;;23.38;15.68;;;8.70;97.30;;;;;;5040614;28;20040;-57
2021/10/09 03:16:33;;;;;;;28.08;17.20;;;8.70;97.20;;;;;;5052812;28;20040;-57
2021/10/09 03:18:58;;;;;;;28.52;16.05;;;8.70;97.20;;;;;;5052825;28;20047;-59
2021/10/09 03:21:24;;;;;;;27.20;16.42;;;8.60;97.30;;;;;;5052331;28;20047;-60
2021/10/09 03:23:50;;;;;;;21.42;16.13;;;8.60;97.40;;;;;;5051249;28;20048;-55
2021/10/09 03:26:15;;;;;;;24.75;15.75;;;8.50;97.40;;;;;;5069018;28;20059;-59
2021/10/09 03:28:41;;;;;;;26.27;16.58;;;8.40;97.60;;;;;;5069465;28;20511;-55
2021/10/09 03:31:06;;;;;;;23.83;15.75;;;8.40;97.70;;;;;;5038662;28;20033;-56
2021/10/09 03:33:32;;;;;;;21.75;16.48;;;8.40;97.60;;;;;;5050496;28;20029;-55
2021/10/09 03:35:57;;;;;;;26.88;16.05;;;8.20;97.70;;;;;;5052736;28;20037;-57
2021/10/09 03:38:24;;;;;;;24.80;16.35;;;8.20;98.10;;;;;;5052777;28;20573;-59
2021/10/09 03:40:55;;;;;;;24.08;16.08;;;8.20;98.10;;;;;;5016863;28;20025;-56
2021/10/09 03:43:22;;;;;;;28.83;17.08;;;8.20;98.10;;;;;;5032921;28;20091;-60
2021/10/09 03:46:02;;;;;;;24.17;16.25;;;8.20;98.20;;;;;;5032436;28;20069;-56
2021/10/09 03:48:57;;;;;;;25.33;16.42;;;8.10;98.20;;;;;;5035610;28;20079;-58
2021/10/09 03:53:58;;;;;;;34.40;18.27;;;8.10;98.20;;;;;;5036021;28;20432;-59
2021/10/09 03:56:23;;;;;;;29.90;17.75;;;8.00;98.10;;;;;;5036316;28;20083;-56
2021/10/09 03:58:49;;;;;;;26.27;16.85;;;7.90;98.40;;;;;;5036038;28;20392;-61
2021/10/09 04:01:14;;;;;;;26.10;18.63;;;7.90;98.50;;;;;;5035713;28;20041;-53
2021/10/09 04:03:40;;;;;;;26.98;17.63;;;7.80;98.70;;;;;;5042457;28;20036;-55
2021/10/09 04:06:06;;;;;;;26.60;18.30;;;7.70;99.00;;;;;;5056143;28;20029;-55
2021/10/09 04:08:31;;;;;;;29.02;17.40;;;7.70;98.70;;;;;;5055921;28;20068;-59
2021/10/09 04:10:57;;;;;;;27.23;17.80;;;7.60;99.10;;;;;;5055512;28;20476;-53
2021/10/09 04:13:22;;;;;;;29.27;18.10;;;7.50;99.20;;;;;;5054464;28;20472;-56
2021/10/09 04:15:48;;;;;;;23.52;16.77;;;7.50;99.40;;;;;;5054682;28;20492;-55
2021/10/09 04:18:13;;;;;;;28.08;18.30;;;7.50;99.60;;;;;;5060513;28;20032;-59
2021/10/09 04:20:39;;;;;;;27.63;17.73;;;7.50;99.30;;;;;;5063543;28;20103;-55
2021/10/09 04:23:05;;;;;;;26.10;16.88;;;7.50;99.40;;;;;;5064425;28;20021;-55
2021/10/09 04:25:31;;;;;;;27.33;17.73;;;7.50;99.20;;;;;;5065827;28;20021;-54
2021/10/09 04:27:56;;;;;;;27.30;17.48;;;7.60;99.30;;;;;;5061111;28;20021;-56
2021/10/09 04:30:22;;;;;;;23.48;16.55;;;7.60;99.20;;;;;;5067760;28;20044;-60
2021/10/09 04:32:47;;;;;;;26.25;18.20;;;7.70;99.10;;;;;;5062694;28;20029;-54
2021/10/09 04:35:13;;;;;;;28.70;18.02;;;7.70;98.80;;;;;;5065104;28;20096;-56
2021/10/09 04:37:39;;;;;;;26.85;18.67;;;7.60;98.80;;;;;;5062617;28;20116;-53
2021/10/09 04:40:05;;;;;;;35.72;18.92;;;7.60;99.00;;;;;;5066426;28;20392;-57
2021/10/09 04:42:31;;;;;;;32.13;19.70;;;7.40;99.10;;;;;;5065064;28;20102;-59
2021/10/09 04:44:56;;;;;;;27.95;18.38;;;7.40;99.40;;;;;;5063380;28;20143;-58
2021/10/09 04:47:22;;;;;;;30.00;18.75;;;7.30;99.60;;;;;;5066383;28;20025;-57
2021/10/09 04:49:48;;;;;;;30.98;19.88;;;7.40;99.50;;;;;;5063889;28;20553;-55
2021/10/09 04:52:13;;;;;;;24.00;17.60;;;7.30;99.50;;;;;;5065313;28;20031;-54
2021/10/09 04:54:39;;;;;;;34.20;19.83;;;7.40;99.50;;;;;;5063506;28;20029;-57
2021/10/09 04:57:04;;;;;;;28.27;17.88;;;7.40;99.30;;;;;;5063732;28;20036;-55
2021/10/09 04:59:30;;;;;;;23.95;17.42;;;7.50;99.40;;;;;;5063589;28;20064;-59
2021/10/09 05:01:56;;;;;;;28.05;19.15;;;7.50;99.30;;;;;;5061911;28;20039;-55
2021/10/09 05:04:21;;;;;;;32.20;17.60;;;7.50;99.20;;;;;;5060144;28;20036;-51
2021/10/09 05:06:47;;;;;;;30.23;19.30;;;7.50;99.10;;;;;;5062776;28;20106;-55
2021/10/09 05:09:12;;;;;;;34.25;18.52;;;7.50;99.00;;;;;;5064757;28;20036;-58
2021/10/09 05:11:38;;;;;;;29.00;18.25;;;7.50;99.10;;;;;;5063027;28;20036;-55
2021/10/09 05:14:03;;;;;;;27.50;18.83;;;7.50;98.80;;;;;;5063344;28;20036;-55
2021/10/09 05:16:29;;;;;;;28.23;18.77;;;7.50;99.10;;;;;;5064625;28;20148;-58
2021/10/09 05:18:55;;;;;;;31.33;19.00;;;7.50;99.10;;;;;;5065581;28;20047;-61
2021/10/09 05:21:20;;;;;;;37.45;18.83;;;7.50;99.20;;;;;;5062647;28;20419;-63
2021/10/09 05:23:46;;;;;;;33.15;18.95;;;7.50;99.00;;;;;;5064856;28;20040;-63
2021/10/09 05:26:12;;;;;;;29.00;18.95;;;7.60;99.00;;;;;;5063717;28;20470;-62
2021/10/09 05:28:46;;;;;;;29.23;20.13;;;7.60;98.90;;;;;;5061293;28;20492;-62
2021/10/09 05:31:21;;;;;;;26.92;19.35;;;7.60;98.90;;;;;;5063310;28;20028;-63
2021/10/09 05:33:47;;;;;;;29.35;19.20;;;7.60;98.90;;;;;;5064291;28;20047;-63
2021/10/09 05:36:12;;;;;;;30.40;19.90;;;7.50;98.80;;;;;;5065915;28;20032;-62
2021/10/09 05:38:38;;;;;;;29.27;19.05;;;7.50;98.90;;;;;;5063177;28;20107;-62
2021/10/09 05:41:04;;;;;;;39.83;19.23;;;7.50;99.10;;;;;;5066017;28;20492;-62
2021/10/09 05:43:31;;;;;;;31.30;20.13;;;7.50;98.80;;;;;;5064482;28;20017;-62
2021/10/09 05:45:58;;;;;;;32.20;19.35;;;7.50;98.70;;;;;;5061456;28;20025;-63
2021/10/09 05:48:24;;;;;;;28.02;20.00;;;7.50;98.80;;;;;;5062394;28;20044;-62
2021/10/09 05:55:55;;;;;;;32.22;19.95;;;7.50;98.60;;;;;;5035324;28;20037;-62
2021/10/09 05:58:29;;;;;;;28.58;18.92;;;7.50;98.60;;;;;;5033169;28;20022;-61
2021/10/09 06:01:45;;;;;;;34.03;20.90;;;7.60;98.70;;;;;;5038687;28;20033;-63
2021/10/09 07:00:13;;;;;;;31.67;20.70;;;8.10;97.70;;;;;;5033809;28;20029;-61
2021/10/09 07:02:40;;;;;;;35.05;20.48;;;8.10;97.60;;;;;;5033502;28;20157;-60
2021/10/09 07:05:07;;;;;;;29.00;19.77;;;8.10;97.50;;;;;;5032851;28;20171;-61
2021/10/09 07:07:38;;;;;;;34.33;20.95;;;8.10;97.40;;;;;;5042271;28;20040;-61
2021/10/09 07:10:04;;;;;;;33.88;20.45;;;8.20;97.30;;;;;;5054067;28;20033;-58
2021/10/09 07:12:30;;;;;;;32.47;19.85;;;8.20;97.20;;;;;;5038779;28;20374;-62
2021/10/09 07:14:56;;;;;;;35.40;21.20;;;8.30;97.20;;;;;;5033793;28;20034;-63
2021/10/09 07:17:21;;;;;;;32.05;20.20;;;8.30;97.00;;;;;;5051736;28;20061;-59
2021/10/09 07:19:47;;;;;;;36.50;20.65;;;8.30;97.00;;;;;;5053528;28;20115;-59
2021/10/09 07:22:12;;;;;;;33.72;20.80;;;8.30;97.00;;;;;;5043902;28;20051;-57
2021/10/09 07:24:38;;;;;;;32.67;21.50;;;8.30;96.80;;;;;;5055824;28;20063;-61
2021/10/09 07:27:03;;;;;;;41.25;21.65;;;8.30;97.00;;;;;;5052260;28;20460;-55
2021/10/09 07:29:29;;;;;;;42.92;25.60;;;8.40;96.90;;;;;;5058986;28;20029;-58
2021/10/09 07:31:55;;;;;;;38.13;24.45;;;8.50;96.90;;;;;;5057168;28;20029;-58
2021/10/09 07:34:21;;;;;;;34.28;22.98;;;8.60;96.80;;;;;;5057530;28;20051;-63
2021/10/09 07:36:47;;;;;;;34.10;20.08;;;8.70;96.70;;;;;;5044761;28;20180;-60
2021/10/09 07:39:13;;;;;;;30.83;21.20;;;8.70;96.40;;;;;;5039150;28;20671;-61
2021/10/09 07:41:38;;;;;;;35.78;21.17;;;8.80;96.80;;;;;;5039485;28;20069;-63
2021/10/09 07:44:04;;;;;;;47.50;27.50;;;8.80;96.60;;;;;;5038356;28;20044;-57
2021/10/09 07:46:30;;;;;;;28.60;20.85;;;8.80;96.60;;;;;;5048911;28;20388;-57
2021/10/09 07:48:55;;;;;;;28.48;20.20;;;8.90;96.50;;;;;;5058721;28;20035;-57
2021/10/09 07:51:21;;;;;;;27.65;20.00;;;9.00;96.40;;;;;;5056538;28;20377;-54
2021/10/09 07:53:47;;;;;;;30.52;19.38;;;9.00;96.20;;;;;;5056915;28;20033;-60
2021/10/09 07:56:12;;;;;;;31.13;20.27;;;9.10;96.10;;;;;;5038862;28;20112;-53
2021/10/09 07:58:38;;;;;;;33.00;19.23;;;9.20;95.80;;;;;;5057304;28;20128;-61
2021/10/09 08:01:03;;;;;;;27.23;20.05;;;9.20;95.80;;;;;;5052446;28;20055;-62
2021/10/09 08:03:29;;;;;;;31.23;19.75;;;9.10;95.60;;;;;;5053756;28;20034;-59
2021/10/09 08:05:55;;;;;;;29.50;19.55;;;9.10;95.50;;;;;;5036551;28;20037;-53
2021/10/09 08:08:21;;;;;;;26.58;19.48;;;9.20;95.60;;;;;;5037491;28;20033;-55
2021/10/09 08:10:48;;;;;;;29.98;18.27;;;9.20;95.10;;;;;;5037424;28;20029;-56
2021/10/09 08:13:17;;;;;;;28.20;19.00;;;9.30;95.00;;;;;;5036417;28;20037;-60
2021/10/09 08:15:44;;;;;;;34.33;18.92;;;9.20;95.00;;;;;;5035714;28;20033;-56
2021/10/09 08:18:10;;;;;;;25.40;18.52;;;9.20;94.90;;;;;;5035155;28;20073;-58
2021/10/09 08:20:39;;;;;;;31.27;18.83;;;9.20;94.90;;;;;;5040555;28;20033;-60
2021/10/09 08:23:23;;;;;;;33.35;18.90;;;9.20;95.00;;;;;;5055477;28;20569;-55
2021/10/09 08:26:20;;;;;;;27.05;17.80;;;9.40;94.80;;;;;;5040696;28;20065;-57
2021/10/09 08:39:40;;;;;;;32.97;19.30;;;9.80;94.20;;;;;;5035355;28;20034;-56
2021/10/09 08:42:06;;;;;;;24.70;17.00;;;9.90;93.70;;;;;;5035150;28;20044;-57
2021/10/09 08:44:31;;;;;;;24.05;17.70;;;9.90;93.40;;;;;;5035507;28;20033;-55
2021/10/09 08:46:57;;;;;;;32.22;17.73;;;9.90;93.30;;;;;;5035384;28;20091;-55
2021/10/09 08:49:25;;;;;;;25.45;17.65;;;9.90;93.20;;;;;;5033746;28;20496;-54
2021/10/09 08:51:51;;;;;;;29.17;18.45;;;10.00;93.10;;;;;;5033735;28;20028;-60
2021/10/09 08:54:17;;;;;;;28.95;18.45;;;10.10;92.90;;;;;;5035545;28;20026;-56
2021/10/09 08:56:47;;;;;;;32.17;18.77;;;10.10;92.70;;;;;;5037577;28;20061;-58
2021/10/09 08:59:24;;;;;;;30.42;18.90;;;10.10;92.70;;;;;;5035339;28;20037;-58
2021/10/09 09:02:03;;;;;;;25.42;17.85;;;10.00;92.60;;;;;;5035822;28;20516;-52
2021/10/09 09:35:03;;;;;;;29.75;19.48;;;10.50;92.80;;;;;;5054005;28;20021;-55
2021/10/09 09:40:09;;;;;;;25.40;17.60;;;10.40;92.80;;;;;;5054267;28;20065;-55
2021/10/09 09:43:05;;;;;;;31.30;18.42;;;10.50;92.90;;;;;;5053833;28;20029;-54
2021/10/09 09:45:30;;;;;;;;;;;10.60;92.70;;;;;;5040814;28;20098;-57
2021/10/09 09:47:59;;;;;;;29.38;18.58;;;10.50;92.60;;;;;;5053794;28;19909;-58
2021/10/09 09:50:26;;;;;;;25.45;17.38;;;10.70;92.50;;;;;;5052109;28;20032;-54
2021/10/09 09:52:53;;;;;;;24.98;19.00;;;10.80;92.00;;;;;;5053340;28;20029;-59
2021/10/09 09:55:20;;;;;;;34.95;18.02;;;11.00;91.90;;;;;;5054122;28;20051;-56
2021/10/09 09:57:47;;;;;;;25.17;18.35;;;11.10;91.90;;;;;;5053980;28;20124;-54
2021/10/09 10:00:16;;;;;;;24.90;18.60;;;11.20;91.90;;;;;;5052723;28;20056;-61
2021/10/09 10:02:51;;;;;;;26.13;18.30;;;11.20;91.70;;;;;;5053436;28;20079;-54
2021/10/09 10:05:19;;;;;;;29.02;18.02;;;11.30;91.40;;;;;;5053810;28;20175;-54
2021/10/09 10:07:46;;;;;;;32.15;18.50;;;11.30;91.30;;;;;;5051069;28;20044;-54
2021/10/09 10:10:12;;;;;;;29.70;18.58;;;11.50;91.50;;;;;;5033493;28;20088;-60
2021/10/09 10:12:39;;;;;;;30.65;18.50;;;11.60;91.40;;;;;;5037969;28;20688;-55
2021/10/09 10:15:12;;;;;;;28.15;18.85;;;11.80;91.10;;;;;;5062195;28;20119;-57
2021/10/09 10:17:47;;;;;;;26.42;19.00;;;11.70;90.90;;;;;;5061467;28;20587;-56
2021/10/09 10:20:18;;;;;;;27.17;19.02;;;11.70;91.70;;;;;;5035748;28;20037;-56
2021/10/09 10:22:43;;;;;;;26.73;19.33;;;11.80;91.40;;;;;;5052716;28;20064;-56
2021/10/09 10:25:15;;;;;;;25.23;18.10;;;11.90;91.00;;;;;;5052798;28;20514;-58
2021/10/09 10:27:41;;;;;;;27.33;17.58;;;12.10;91.10;;;;;;5041742;28;20021;-58
2021/10/09 10:30:15;;;;;;;33.55;18.35;;;12.30;91.10;;;;;;5034019;28;20037;-56
2021/10/09 10:32:46;;;;;;;26.33;17.98;;;12.40;90.70;;;;;;5031504;28;20081;-56
2021/10/09 10:35:30;;;;;;;31.55;19.08;;;12.50;90.40;;;;;;5033179;28;20033;-57
2021/10/09 10:38:20;;;;;;;29.33;19.00;;;12.50;90.20;;;;;;5033225;28;20026;-55
2021/10/09 10:41:04;;;;;;;26.88;18.20;;;12.40;90.10;;;;;;5027636;28;20041;-57
2021/10/09 10:44:15;;;;;;;26.23;18.25;;;12.20;90.20;;;;;;5033212;28;20036;-55
2021/10/09 10:46:44;;;;;;;25.30;18.35;;;12.20;90.50;;;;;;5018515;28;20053;-53
2021/10/09 10:49:18;;;;;;;27.02;17.58;;;12.30;90.50;;;;;;5032848;28;20037;-58
2021/10/09 10:57:02;;;;;;;24.63;17.02;;;12.60;90.30;;;;;;5059650;28;20040;-51
2021/10/09 10:59:34;;;;;;;25.65;16.90;;;12.90;93.60;;;;;;5058765;28;20032;-61
2021/10/09 11:02:17;;;;;;;26.63;16.45;;;13.10;90.50;;;;;;5060880;28;20021;-57
2021/10/09 11:04:56;;;;;;;23.15;16.75;;;13.30;89.30;;;;;;5058820;28;20127;-54
2021/10/09 11:07:31;;;;;;;27.40;16.95;;;13.30;88.20;;;;;;5058049;28;20045;-56
2021/10/09 11:10:05;;;;;;;29.08;17.20;;;13.20;88.00;;;;;;5060632;28;20028;-57
2021/10/09 11:12:34;;;;;;;31.25;17.55;;;13.30;88.70;;;;;;5059826;28;20360;-52
2021/10/09 11:15:04;;;;;;;24.02;16.35;;;13.40;89.00;;;;;;5061156;28;20078;-57
2021/10/09 11:17:36;;;;;;;22.73;15.40;;;13.60;88.50;;;;;;5051788;28;20037;-60
2021/10/09 11:20:03;;;;;;;22.05;15.48;;;13.60;87.70;;;;;;5050247;28;20037;-52
2021/10/09 11:22:47;;;;;;;28.27;15.80;;;13.70;87.50;;;;;;5051664;28;20036;-57
2021/10/09 11:25:28;;;;;;;26.55;16.38;;;13.90;86.80;;;;;;5051550;28;20059;-56
2021/10/09 11:27:55;;;;;;;23.02;15.52;;;13.90;86.50;;;;;;5048213;28;20508;-53
2021/10/09 11:30:21;;;;;;;24.73;16.13;;;13.90;85.90;;;;;;5041987;28;20038;-61
2021/10/09 11:32:47;;;;;;;19.88;14.27;;;13.80;85.70;;;;;;5035274;28;20515;-58
2021/10/09 11:35:17;;;;;;;24.35;15.57;;;13.90;85.80;;;;;;5033982;28;20052;-54
2021/10/09 11:37:48;;;;;;;25.30;14.15;;;13.90;85.80;;;;;;5043477;28;20121;-58
2021/10/09 11:40:13;;;;;;;19.65;13.32;;;13.90;85.50;;;;;;5044373;28;20037;-57
2021/10/09 11:42:56;;;;;;;28.90;14.75;;;13.80;83.40;;;;;;5036923;28;20489;-53
2021/10/09 11:45:40;;;;;;;20.20;14.07;;;13.80;84.00;;;;;;5033175;28;20448;-51
2021/10/09 11:53:52;;;;;;;17.90;11.75;;;13.90;84.20;;;;;;5056384;28;20033;-57
2021/10/09 11:56:19;;;;;;;22.23;11.10;;;14.00;83.20;;;;;;5070333;28;20032;-57
2021/10/09 11:58:54;;;;;;;14.00;9.82;;;14.10;80.50;;;;;;5052320;28;20044;-59
2021/10/09 12:01:40;;;;;;;21.67;11.25;;;14.00;80.40;;;;;;5036984;28;20055;-56
2021/10/09 12:04:18;;;;;;;13.52;9.80;;;14.10;80.40;;;;;;5041771;28;20041;-59
2021/10/09 12:06:58;;;;;;;15.43;10.45;;;14.10;80.40;;;;;;5053767;28;20039;-57
2021/10/09 12:09:38;;;;;;;13.07;9.23;;;14.20;79.90;;;;;;5061105;28;20099;-57
2021/10/09 12:12:20;;;;;;;21.63;9.93;;;14.20;79.30;;;;;;5073416;28;20504;-53
2021/10/09 12:14:47;;;;;;;13.90;9.20;;;14.30;77.50;;;;;;5060261;28;20621;-62
2021/10/09 12:17:13;;;;;;;12.90;8.98;;;14.30;77.70;;;;;;5065402;28;20029;-53
2021/10/09 12:19:39;;;;;;;11.77;9.13;;;14.30;77.90;;;;;;5049756;28;20047;-58
2021/10/09 12:22:07;;;;;;;13.05;8.55;;;14.30;76.90;;;;;;5048656;28;20039;-57
2021/10/09 12:24:51;;;;;;;11.85;7.63;;;14.50;77.20;;;;;;5048262;28;20036;-53
2021/10/09 12:27:20;;;;;;;13.07;8.60;;;14.60;75.80;;;;;;5045063;28;20112;-58
2021/10/09 12:30:02;;;;;;;10.85;8.50;;;14.70;75.30;;;;;;5042804;28;20044;-58
2021/10/09 12:32:29;;;;;;;14.60;8.52;;;14.80;75.50;;;;;;5043820;28;20023;-56
2021/10/09 12:35:09;;;;;;;13.48;8.35;;;14.80;74.90;;;;;;5052908;28;20399;-57
2021/10/09 12:37:36;;;;;;;10.93;7.43;;;15.00;75.10;;;;;;5042012;28;20133;-56
2021/10/09 12:40:10;;;;;;;18.83;10.90;;;15.10;74.60;;;;;;5042987;28;20044;-56
2021/10/09 12:42:35;;;;;;;12.63;7.87;;;15.20;73.70;;;;;;5059512;28;20220;-57
2021/10/09 12:45:03;;;;;;;10.95;8.50;;;15.40;73.60;;;;;;5057035;28;20124;-58
2021/10/09 12:47:29;;;;;;;14.48;9.15;;;15.50;72.70;;;;;;5067673;28;20056;-53
2021/10/09 12:49:55;;;;;;;13.02;7.40;;;15.60;71.40;;;;;;5062867;28;20059;-55
2021/10/09 12:52:21;;;;;;;14.52;9.02;;;15.70;72.30;;;;;;5061416;28;20044;-54
2021/10/09 12:54:46;;;;;;;11.30;7.93;;;15.60;71.50;;;;;;5062535;28;20076;-56
2021/10/09 12:57:12;;;;;;;12.45;7.78;;;15.70;71.20;;;;;;5060868;28;20067;-56
2021/10/09 12:59:37;;;;;;;10.73;6.95;;;15.70;70.50;;;;;;5075902;28;20042;-52
2021/10/09 13:02:03;;;;;;;13.50;7.38;;;15.80;69.70;;;;;;5047289;28;20531;-55
2021/10/09 13:04:29;;;;;;;10.43;7.20;;;15.90;69.60;;;;;;5043680;28;20065;-53
2021/10/09 13:06:55;;;;;;;21.27;7.60;;;16.00;70.30;;;;;;5043260;28;20026;-56
2021/10/09 13:09:21;;;;;;;11.05;7.40;;;16.20;68.80;;;;;;5051566;28;20054;-56
2021/10/09 13:11:56;;;;;;;8.75;7.05;;;16.10;68.10;;;;;;5075784;28;20044;-59
2021/10/09 13:14:22;;;;;;;8.40;6.60;;;16.20;68.40;;;;;;5036964;28;20516;-53
2021/10/09 13:16:48;;;;;;;9.30;6.00;;;16.30;67.80;;;;;;5034773;28;20030;-55
2021/10/09 13:19:14;;;;;;;9.52;6.45;;;16.50;66.80;;;;;;5047390;28;20033;-57
2021/10/09 13:21:39;;;;;;;10.20;7.18;;;16.70;65.60;;;;;;5054566;28;20120;-56
2021/10/09 13:24:06;;;;;;;8.93;6.57;;;16.80;65.90;;;;;;5037649;28;20042;-59
2021/10/09 13:26:31;;;;;;;13.38;6.57;;;17.00;64.90;;;;;;5043912;28;20028;-57
2021/10/09 13:28:58;;;;;;;9.95;6.75;;;17.10;65.30;;;;;;5056192;28;20025;-60
2021/10/09 13:31:24;;;;;;;8.57;6.30;;;17.10;63.80;;;;;;5052925;28;20377;-62
2021/10/09 13:33:50;;;;;;;9.45;6.38;;;17.30;63.90;;;;;;5055182;28;20065;-62
2021/10/09 13:36:16;;;;;;;17.15;6.97;;;17.40;64.10;;;;;;5054068;28;20480;-61
2021/10/09 13:38:44;;;;;;;8.93;5.97;;;17.50;64.20;;;;;;5054537;28;20435;-61
2021/10/09 13:41:12;;;;;;;10.82;6.70;;;17.60;64.00;;;;;;5053911;28;20452;-61
2021/10/09 13:43:38;;;;;;;10.73;6.03;;;17.70;63.10;;;;;;5053955;28;20484;-61
2021/10/09 13:46:05;;;;;;;10.45;6.20;;;17.60;63.20;;;;;;5053156;28;20045;-61
2021/10/09 13:48:30;;;;;;;8.55;6.22;;;17.70;63.60;;;;;;5054549;28;20044;-62
2021/10/09 13:50:56;;;;;;;9.55;6.43;;;17.60;62.00;;;;;;5054544;28;20029;-61
2021/10/09 13:53:22;;;;;;;9.00;5.97;;;17.60;62.60;;;;;;5055559;28;20037;-61
2021/10/09 13:55:48;;;;;;;12.18;6.25;;;17.70;63.10;;;;;;5057265;28;20040;-62
2021/10/09 13:58:15;;;;;;;8.60;5.80;;;17.70;63.60;;;;;;5055645;28;20032;-61
2021/10/09 14:00:42;;;;;;;9.70;5.95;;;17.90;63.70;;;;;;5053957;28;20043;-61
2021/10/09 14:03:08;;;;;;;9.38;6.18;;;17.90;63.20;;;;;;5054031;28;20060;-60
2021/10/09 14:05:34;;;;;;;8.32;5.72;;;18.00;63.60;;;;;;5036378;28;20059;-61
2021/10/09 14:08:01;;;;;;;11.50;6.10;;;18.00;62.60;;;;;;5053582;28;20481;-61
2021/10/09 14:10:31;;;;;;;12.20;6.10;;;18.00;62.70;;;;;;5053883;28;20048;-64
2021/10/09 14:12:57;;;;;;;12.30;6.45;;;18.20;63.00;;;;;;5053639;28;20033;-61
2021/10/09 14:15:24;;;;;;;10.20;5.90;;;18.40;62.10;;;;;;5053598;28;20144;-62
2021/10/09 14:17:59;;;;;;;10.55;5.68;;;18.50;61.60;;;;;;5053364;28;20028;-64
2021/10/09 14:20:24;;;;;;;10.95;6.28;;;18.60;61.30;;;;;;5037439;28;20037;-61
2021/10/09 14:22:50;;;;;;;10.18;5.75;;;18.80;61.10;;;;;;5053580;28;20121;-61
2021/10/09 14:32:30;;;;;;;6.47;5.45;;;19.00;57.90;;;;;;5020352;28;20077;-77
2021/10/09 14:35:15;;;;;;;8.50;5.28;;;19.40;56.80;;;;;;5022956;28;20037;-80
2021/10/09 14:37:59;;;;;;;7.18;5.47;;;19.50;56.20;;;;;;5022083;28;20072;-79
2021/10/09 14:41:24;;;;;;;9.23;5.43;;;19.80;55.00;;;;;;5010023;28;20096;-78
2021/10/09 14:44:09;;;;;;;9.65;5.53;;;20.20;54.40;;;;;;5008378;28;20088;-80
2021/10/09 14:49:46;;;;;;;7.05;5.55;;;21.00;53.20;;;;;;5020926;28;20033;-78
2021/10/09 14:52:47;;;;;;;8.07;5.53;;;21.40;52.30;;;;;;4999267;28;20127;-77
2021/10/09 14:55:54;;;;;;;10.25;5.82;;;22.00;51.50;;;;;;4973095;28;20099;-77
2021/10/09 15:17:12;;;;;;;9.35;6.10;;;17.20;59.00;;;;;;5000534;28;20053;-77
2021/10/09 15:19:56;;;;;;;14.57;6.53;;;16.70;60.00;;;;;;4976642;28;20048;-78
2021/10/09 15:22:40;;;;;;;9.05;6.35;;;16.60;60.00;;;;;;4972861;28;20081;-77